AF1179 LIRN-LFPG
Flight info
| Callsign | AF1179 |
|---|---|
| Flight time | 1h 56m |
| Altitude | 38000 |
| Route | ALAXI DCT INSOX DCT AOSTA DCT ORSUD DCT MOLUS DCT UNKIR DCT GIVRI DCT TINIL |
| Aircraft | B736/M-SDE2E3FGHIRWXY/LB1 |
Departure
| Time | 2026-05-07 02:21 |
|---|---|
| Airport | Naples International Airport (LIRN) |
Arrival
| Time | 2026-05-07 04:18 |
|---|---|
| Airport | Charles de Gaulle International Airport (LFPG) |
| Time | Latitude | Longitude | Altitude | Speed | Heading |
|---|---|---|---|---|---|
| 2026-05-07 02:05 | 40.87865 | 14.28136 | 308 ft | 0 kts | 139° |
| 2026-05-07 02:10 | 40.87871 | 14.28129 | 309 ft | 4 kts | 139° |
| 2026-05-07 02:11 | 40.87891 | 14.28107 | 308 ft | 4 kts | 138° |
| 2026-05-07 02:11 | 40.87909 | 14.28081 | 308 ft | 4 kts | 115° |
| 2026-05-07 02:11 | 40.87914 | 14.28050 | 307 ft | 4 kts | 67° |
| 2026-05-07 02:11 | 40.87907 | 14.28035 | 307 ft | 2 kts | 51° |
| 2026-05-07 02:12 | 40.87907 | 14.28034 | 307 ft | 2 kts | 51° |
| 2026-05-07 02:14 | 40.87908 | 14.28037 | 307 ft | 4 kts | 51° |
| 2026-05-07 02:14 | 40.87921 | 14.28057 | 309 ft | 5 kts | 50° |
| 2026-05-07 02:14 | 40.87958 | 14.28121 | 306 ft | 11 kts | 64° |
| 2026-05-07 02:15 | 40.87953 | 14.28234 | 303 ft | 13 kts | 96° |
| 2026-05-07 02:15 | 40.87942 | 14.28359 | 300 ft | 15 kts | 98° |
| 2026-05-07 02:15 | 40.87949 | 14.28474 | 298 ft | 6 kts | 42° |
| 2026-05-07 02:15 | 40.87987 | 14.28510 | 297 ft | 8 kts | 41° |
| 2026-05-07 02:16 | 40.88032 | 14.28576 | 294 ft | 11 kts | 53° |
| 2026-05-07 02:16 | 40.88073 | 14.28655 | 292 ft | 10 kts | 52° |
| 2026-05-07 02:16 | 40.88101 | 14.28703 | 287 ft | 10 kts | 52° |
| 2026-05-07 02:17 | 40.88143 | 14.28773 | 284 ft | 15 kts | 52° |
| 2026-05-07 02:17 | 40.88214 | 14.28899 | 279 ft | 19 kts | 52° |
| 2026-05-07 02:17 | 40.88303 | 14.29052 | 273 ft | 22 kts | 51° |
| 2026-05-07 02:18 | 40.88392 | 14.29209 | 267 ft | 21 kts | 51° |
| 2026-05-07 02:18 | 40.88480 | 14.29360 | 261 ft | 20 kts | 53° |
| 2026-05-07 02:18 | 40.88564 | 14.29507 | 255 ft | 20 kts | 47° |
| 2026-05-07 02:18 | 40.88647 | 14.29648 | 249 ft | 19 kts | 53° |
| 2026-05-07 02:19 | 40.88730 | 14.29792 | 244 ft | 20 kts | 52° |
| 2026-05-07 02:19 | 40.88816 | 14.29940 | 238 ft | 22 kts | 53° |
| 2026-05-07 02:19 | 40.88911 | 14.30105 | 231 ft | 22 kts | 52° |
| 2026-05-07 02:19 | 40.89002 | 14.30265 | 225 ft | 22 kts | 53° |
| 2026-05-07 02:20 | 40.89074 | 14.30389 | 220 ft | 15 kts | 53° |
| 2026-05-07 02:20 | 40.89134 | 14.30450 | 216 ft | 6 kts | 5° |
| 2026-05-07 02:20 | 40.89175 | 14.30437 | 216 ft | 7 kts | 335° |
| 2026-05-07 02:20 | 40.89208 | 14.30391 | 215 ft | 8 kts | 284° |
| 2026-05-07 02:21 | 40.89194 | 14.30328 | 222 ft | 3 kts | 236° |
| 2026-05-07 02:21 | 40.89143 | 14.30232 | 221 ft | 56 kts | 234° |
| 2026-05-07 02:21 | 40.88743 | 14.29382 | 254 ft | 160 kts | 240° |
| 2026-05-07 02:21 | 40.88060 | 14.27987 | 1129 ft | 186 kts | 236° |
| 2026-05-07 02:22 | 40.87606 | 14.26400 | 2715 ft | 186 kts | 268° |
| 2026-05-07 02:22 | 40.87858 | 14.24727 | 4083 ft | 195 kts | 288° |
| 2026-05-07 02:22 | 40.88510 | 14.23094 | 4955 ft | 205 kts | 295° |
| 2026-05-07 02:22 | 40.89234 | 14.21432 | 5550 ft | 212 kts | 294° |
| 2026-05-07 02:23 | 40.89975 | 14.19716 | 6229 ft | 216 kts | 294° |
| 2026-05-07 02:23 | 40.90717 | 14.17982 | 7102 ft | 216 kts | 293° |
| 2026-05-07 02:23 | 40.91446 | 14.16269 | 8184 ft | 212 kts | 292° |
| 2026-05-07 02:23 | 40.92163 | 14.14577 | 9286 ft | 211 kts | 292° |
| 2026-05-07 02:24 | 40.93074 | 14.13019 | 10303 ft | 225 kts | 314° |
| 2026-05-07 02:24 | 40.94570 | 14.12077 | 11017 ft | 260 kts | 337° |
| 2026-05-07 02:24 | 40.96492 | 14.11674 | 11294 ft | 299 kts | 346° |
| 2026-05-07 02:24 | 40.98683 | 14.11390 | 11580 ft | 331 kts | 347° |
| 2026-05-07 02:25 | 41.01024 | 14.11108 | 12315 ft | 343 kts | 348° |
| 2026-05-07 02:25 | 41.03423 | 14.10803 | 13295 ft | 348 kts | 348° |
| 2026-05-07 02:25 | 41.05849 | 14.10475 | 14258 ft | 353 kts | 347° |
| 2026-05-07 02:25 | 41.08310 | 14.10131 | 15175 ft | 358 kts | 348° |
| 2026-05-07 02:26 | 41.09941 | 14.09899 | 15784 ft | 361 kts | 348° |
| 2026-05-07 02:26 | 41.13334 | 14.09412 | 17053 ft | 368 kts | 349° |
| 2026-05-07 02:26 | 41.15030 | 14.09168 | 17651 ft | 372 kts | 349° |
| 2026-05-07 02:26 | 41.17628 | 14.08780 | 18497 ft | 378 kts | 347° |
| 2026-05-07 02:27 | 41.20104 | 14.07709 | 19262 ft | 373 kts | 326° |
| 2026-05-07 02:27 | 41.22184 | 14.05693 | 20125 ft | 370 kts | 315° |
| 2026-05-07 02:27 | 41.24128 | 14.03434 | 20942 ft | 374 kts | 314° |
| 2026-05-07 02:27 | 41.26102 | 14.01133 | 21721 ft | 381 kts | 314° |
| 2026-05-07 02:28 | 41.28125 | 13.98817 | 22497 ft | 387 kts | 315° |
| 2026-05-07 02:28 | 41.30176 | 13.96472 | 23269 ft | 391 kts | 313° |
| 2026-05-07 02:28 | 41.32129 | 13.93930 | 23977 ft | 394 kts | 309° |
| 2026-05-07 02:28 | 41.34013 | 13.91255 | 24635 ft | 398 kts | 308° |
| 2026-05-07 02:29 | 41.35890 | 13.88522 | 25315 ft | 402 kts | 308° |
| 2026-05-07 02:29 | 41.37784 | 13.85764 | 26009 ft | 406 kts | 308° |
| 2026-05-07 02:29 | 41.39706 | 13.82988 | 26718 ft | 409 kts | 308° |
| 2026-05-07 02:29 | 41.41654 | 13.80198 | 27351 ft | 414 kts | 308° |
| 2026-05-07 02:30 | 41.43631 | 13.77383 | 27944 ft | 419 kts | 308° |
| 2026-05-07 02:30 | 41.45642 | 13.74528 | 28527 ft | 424 kts | 308° |
| 2026-05-07 02:30 | 41.47674 | 13.71646 | 29119 ft | 429 kts | 308° |
| 2026-05-07 02:30 | 41.49729 | 13.68731 | 29682 ft | 433 kts | 308° |
| 2026-05-07 02:31 | 41.51802 | 13.65789 | 30230 ft | 438 kts | 308° |
| 2026-05-07 02:31 | 41.53892 | 13.62819 | 30725 ft | 440 kts | 308° |
| 2026-05-07 02:31 | 41.55989 | 13.59840 | 31390 ft | 438 kts | 308° |
| 2026-05-07 02:31 | 41.58067 | 13.56885 | 32139 ft | 434 kts | 308° |
| 2026-05-07 02:32 | 41.60124 | 13.53955 | 32813 ft | 432 kts | 308° |
| 2026-05-07 02:32 | 41.62178 | 13.51024 | 33417 ft | 432 kts | 307° |
| 2026-05-07 02:32 | 41.64229 | 13.48091 | 34015 ft | 431 kts | 307° |
| 2026-05-07 02:32 | 41.66261 | 13.45185 | 34645 ft | 426 kts | 307° |
| 2026-05-07 02:33 | 41.68272 | 13.42307 | 35276 ft | 421 kts | 307° |
| 2026-05-07 02:33 | 41.70261 | 13.39456 | 35828 ft | 418 kts | 307° |
| 2026-05-07 02:33 | 41.72242 | 13.36613 | 36344 ft | 417 kts | 307° |
| 2026-05-07 02:33 | 41.74187 | 13.33818 | 36830 ft | 414 kts | 307° |
| 2026-05-07 02:34 | 41.76138 | 13.30997 | 37342 ft | 412 kts | 307° |
| 2026-05-07 02:34 | 41.78074 | 13.28192 | 37852 ft | 409 kts | 307° |
| 2026-05-07 02:34 | 41.80012 | 13.25379 | 38006 ft | 413 kts | 308° |
| 2026-05-07 02:34 | 41.81965 | 13.22544 | 38028 ft | 414 kts | 308° |
| 2026-05-07 02:35 | 41.85961 | 13.17032 | 38035 ft | 409 kts | 310° |
| 2026-05-07 02:35 | 41.90015 | 13.11674 | 38034 ft | 409 kts | 310° |
| 2026-05-07 02:36 | 41.94063 | 13.06301 | 38024 ft | 409 kts | 309° |
| 2026-05-07 02:36 | 41.98097 | 13.00903 | 38009 ft | 409 kts | 309° |
| 2026-05-07 02:37 | 42.02117 | 12.95495 | 38016 ft | 409 kts | 309° |
| 2026-05-07 02:37 | 42.06139 | 12.90071 | 38010 ft | 409 kts | 309° |
| 2026-05-07 02:38 | 42.10155 | 12.84643 | 38000 ft | 409 kts | 309° |
| 2026-05-07 02:38 | 42.14167 | 12.79211 | 38008 ft | 409 kts | 309° |
| 2026-05-07 02:39 | 42.18172 | 12.73778 | 38005 ft | 408 kts | 309° |
| 2026-05-07 02:39 | 42.22165 | 12.68352 | 38002 ft | 407 kts | 309° |
| 2026-05-07 02:40 | 42.26142 | 12.62937 | 38004 ft | 405 kts | 309° |
| 2026-05-07 02:40 | 42.30109 | 12.57525 | 38000 ft | 405 kts | 309° |
| 2026-05-07 02:41 | 42.34061 | 12.52122 | 38021 ft | 404 kts | 308° |
| 2026-05-07 02:41 | 42.38015 | 12.46707 | 38005 ft | 404 kts | 308° |
| 2026-05-07 02:42 | 42.41938 | 12.41324 | 37987 ft | 404 kts | 308° |
| 2026-05-07 02:42 | 42.45879 | 12.35906 | 38002 ft | 404 kts | 308° |
| 2026-05-07 02:43 | 42.49819 | 12.30479 | 37999 ft | 404 kts | 308° |
| 2026-05-07 02:43 | 42.53763 | 12.25036 | 37991 ft | 405 kts | 308° |
| 2026-05-07 02:44 | 42.57703 | 12.19589 | 38024 ft | 405 kts | 308° |
| 2026-05-07 02:44 | 42.61646 | 12.14126 | 37998 ft | 405 kts | 308° |
| 2026-05-07 02:45 | 42.65589 | 12.08654 | 37998 ft | 406 kts | 308° |
| 2026-05-07 02:45 | 42.69534 | 12.03167 | 38016 ft | 406 kts | 307° |
| 2026-05-07 02:46 | 42.73483 | 11.97665 | 38003 ft | 407 kts | 307° |
| 2026-05-07 02:46 | 42.77436 | 11.92147 | 37998 ft | 407 kts | 307° |
| 2026-05-07 02:47 | 42.81382 | 11.86627 | 38017 ft | 407 kts | 307° |
| 2026-05-07 02:47 | 42.85330 | 11.81095 | 37996 ft | 407 kts | 307° |
| 2026-05-07 02:48 | 42.89241 | 11.75604 | 37996 ft | 407 kts | 307° |
| 2026-05-07 02:48 | 42.93181 | 11.70060 | 37983 ft | 406 kts | 307° |
| 2026-05-07 02:49 | 42.97107 | 11.64526 | 37993 ft | 406 kts | 307° |
| 2026-05-07 02:49 | 43.01025 | 11.58993 | 37993 ft | 405 kts | 307° |
| 2026-05-07 02:50 | 43.04938 | 11.53455 | 38013 ft | 405 kts | 307° |
| 2026-05-07 02:50 | 43.08851 | 11.47906 | 37999 ft | 405 kts | 307° |
| 2026-05-07 02:51 | 43.12760 | 11.42353 | 37998 ft | 405 kts | 307° |
| 2026-05-07 02:51 | 43.16680 | 11.36768 | 37993 ft | 407 kts | 307° |
| 2026-05-07 02:52 | 43.20598 | 11.31182 | 37993 ft | 406 kts | 307° |
| 2026-05-07 02:52 | 43.24513 | 11.25586 | 37997 ft | 407 kts | 307° |
| 2026-05-07 02:53 | 43.28426 | 11.19982 | 38010 ft | 407 kts | 307° |
| 2026-05-07 02:53 | 43.32340 | 11.14366 | 38009 ft | 408 kts | 307° |
| 2026-05-07 02:54 | 43.36262 | 11.08726 | 37987 ft | 408 kts | 307° |
| 2026-05-07 02:54 | 43.40182 | 11.03079 | 38005 ft | 408 kts | 307° |
| 2026-05-07 02:55 | 43.44104 | 10.97417 | 37984 ft | 409 kts | 307° |
| 2026-05-07 02:55 | 43.48021 | 10.91753 | 37992 ft | 409 kts | 307° |
| 2026-05-07 02:56 | 43.51940 | 10.86073 | 37998 ft | 410 kts | 306° |
| 2026-05-07 02:56 | 43.55870 | 10.80364 | 37982 ft | 410 kts | 306° |
| 2026-05-07 02:57 | 43.59794 | 10.74653 | 37985 ft | 410 kts | 306° |
| 2026-05-07 02:57 | 43.63717 | 10.68934 | 37987 ft | 410 kts | 306° |
| 2026-05-07 02:58 | 43.67607 | 10.63251 | 37987 ft | 410 kts | 306° |
| 2026-05-07 02:58 | 43.71515 | 10.57529 | 37988 ft | 409 kts | 306° |
| 2026-05-07 02:59 | 43.74046 | 10.53818 | 38052 ft | 409 kts | 306° |
| 2026-05-07 02:59 | 43.76661 | 10.49976 | 37989 ft | 411 kts | 306° |
| 2026-05-07 03:00 | 43.80572 | 10.44222 | 37991 ft | 410 kts | 306° |
| 2026-05-07 03:00 | 43.84481 | 10.38460 | 38002 ft | 411 kts | 306° |
| 2026-05-07 03:01 | 43.88394 | 10.32679 | 37993 ft | 412 kts | 306° |
| 2026-05-07 03:01 | 43.92312 | 10.26880 | 37997 ft | 412 kts | 306° |
| 2026-05-07 03:02 | 43.96234 | 10.21063 | 37986 ft | 413 kts | 306° |
| 2026-05-07 03:02 | 44.00159 | 10.15228 | 37999 ft | 414 kts | 306° |
| 2026-05-07 03:03 | 44.04093 | 10.09369 | 37996 ft | 415 kts | 306° |
| 2026-05-07 03:03 | 44.08027 | 10.03497 | 37994 ft | 415 kts | 306° |
| 2026-05-07 03:04 | 44.11964 | 9.97609 | 37994 ft | 416 kts | 306° |
| 2026-05-07 03:04 | 44.15902 | 9.91708 | 37997 ft | 416 kts | 306° |
| 2026-05-07 03:05 | 44.19813 | 9.85835 | 38012 ft | 416 kts | 306° |
| 2026-05-07 03:05 | 44.23748 | 9.79911 | 37989 ft | 416 kts | 306° |
| 2026-05-07 03:06 | 44.27679 | 9.73984 | 37986 ft | 415 kts | 306° |
| 2026-05-07 03:06 | 44.31594 | 9.68066 | 37971 ft | 415 kts | 306° |
| 2026-05-07 03:07 | 44.35500 | 9.62150 | 37978 ft | 414 kts | 306° |
| 2026-05-07 03:07 | 44.39403 | 9.56226 | 37959 ft | 414 kts | 306° |
| 2026-05-07 03:08 | 44.43290 | 9.50312 | 37958 ft | 413 kts | 306° |
| 2026-05-07 03:08 | 44.47170 | 9.44398 | 37980 ft | 413 kts | 306° |
| 2026-05-07 03:09 | 44.51052 | 9.38468 | 37952 ft | 413 kts | 306° |
| 2026-05-07 03:09 | 44.54926 | 9.32538 | 37963 ft | 412 kts | 306° |
| 2026-05-07 03:10 | 44.58798 | 9.26596 | 37954 ft | 413 kts | 306° |
| 2026-05-07 03:10 | 44.62670 | 9.20644 | 37956 ft | 413 kts | 306° |
| 2026-05-07 03:11 | 44.66541 | 9.14681 | 37946 ft | 414 kts | 306° |
| 2026-05-07 03:11 | 44.70414 | 9.08700 | 37962 ft | 414 kts | 306° |
| 2026-05-07 03:12 | 44.74289 | 9.02703 | 37942 ft | 414 kts | 306° |
| 2026-05-07 03:12 | 44.78158 | 8.96707 | 37933 ft | 413 kts | 306° |
| 2026-05-07 03:13 | 44.82015 | 8.90714 | 37942 ft | 412 kts | 306° |
| 2026-05-07 03:13 | 44.85863 | 8.84722 | 37955 ft | 412 kts | 306° |
| 2026-05-07 03:14 | 44.89709 | 8.78719 | 37969 ft | 413 kts | 306° |
| 2026-05-07 03:15 | 44.94835 | 8.70696 | 37941 ft | 414 kts | 306° |
| 2026-05-07 03:15 | 44.98691 | 8.64649 | 37942 ft | 414 kts | 306° |
| 2026-05-07 03:16 | 45.02545 | 8.58590 | 37940 ft | 415 kts | 306° |
| 2026-05-07 03:16 | 45.06403 | 8.52514 | 37936 ft | 415 kts | 306° |
| 2026-05-07 03:17 | 45.10261 | 8.46422 | 37952 ft | 416 kts | 306° |
| 2026-05-07 03:17 | 45.14122 | 8.40313 | 37939 ft | 416 kts | 307° |
| 2026-05-07 03:18 | 45.17984 | 8.34188 | 37933 ft | 417 kts | 307° |
| 2026-05-07 03:18 | 45.21843 | 8.28057 | 37938 ft | 417 kts | 307° |
| 2026-05-07 03:19 | 45.25699 | 8.21915 | 37945 ft | 417 kts | 307° |
| 2026-05-07 03:19 | 45.29529 | 8.15800 | 37954 ft | 417 kts | 307° |
| 2026-05-07 03:20 | 45.33383 | 8.09635 | 37949 ft | 418 kts | 307° |
| 2026-05-07 03:20 | 45.37262 | 8.03415 | 37943 ft | 418 kts | 307° |
| 2026-05-07 03:21 | 45.41087 | 7.97267 | 37948 ft | 418 kts | 307° |
| 2026-05-07 03:21 | 45.44937 | 7.91068 | 37951 ft | 418 kts | 307° |
| 2026-05-07 03:22 | 45.48785 | 7.84856 | 37947 ft | 418 kts | 307° |
| 2026-05-07 03:22 | 45.52628 | 7.78639 | 37962 ft | 418 kts | 307° |
| 2026-05-07 03:23 | 45.56467 | 7.72414 | 37955 ft | 418 kts | 307° |
| 2026-05-07 03:23 | 45.60303 | 7.66180 | 37948 ft | 418 kts | 307° |
| 2026-05-07 03:24 | 45.64137 | 7.59934 | 37968 ft | 418 kts | 307° |
| 2026-05-07 03:24 | 45.67972 | 7.53674 | 37949 ft | 419 kts | 307° |
| 2026-05-07 03:25 | 45.71813 | 7.47388 | 37967 ft | 420 kts | 307° |
| 2026-05-07 03:25 | 45.75658 | 7.41084 | 37975 ft | 421 kts | 307° |
| 2026-05-07 03:26 | 45.79562 | 7.34823 | 37977 ft | 424 kts | 312° |
| 2026-05-07 03:26 | 45.84303 | 7.29694 | 37980 ft | 429 kts | 321° |
| 2026-05-07 03:27 | 45.89220 | 7.24858 | 37986 ft | 428 kts | 321° |
| 2026-05-07 03:27 | 45.94093 | 7.19945 | 37993 ft | 428 kts | 321° |
| 2026-05-07 03:28 | 45.98944 | 7.14995 | 37994 ft | 427 kts | 320° |
| 2026-05-07 03:28 | 46.03777 | 7.10031 | 38013 ft | 427 kts | 321° |
| 2026-05-07 03:29 | 46.08611 | 7.05055 | 38006 ft | 427 kts | 321° |
| 2026-05-07 03:29 | 46.13446 | 7.00071 | 38009 ft | 427 kts | 321° |
| 2026-05-07 03:30 | 46.18284 | 6.95074 | 38001 ft | 429 kts | 321° |
| 2026-05-07 03:30 | 46.23096 | 6.90092 | 37999 ft | 428 kts | 321° |
| 2026-05-07 03:31 | 46.27931 | 6.85074 | 37997 ft | 428 kts | 321° |
| 2026-05-07 03:31 | 46.32770 | 6.80043 | 37991 ft | 428 kts | 321° |
| 2026-05-07 03:32 | 46.37602 | 6.75007 | 37994 ft | 427 kts | 321° |
| 2026-05-07 03:32 | 46.42388 | 6.69939 | 37983 ft | 425 kts | 316° |
| 2026-05-07 03:33 | 46.46225 | 6.63573 | 37977 ft | 417 kts | 298° |
| 2026-05-07 03:33 | 46.49105 | 6.56296 | 37976 ft | 416 kts | 297° |
| 2026-05-07 03:34 | 46.51935 | 6.48969 | 37983 ft | 416 kts | 297° |
| 2026-05-07 03:34 | 46.54789 | 6.41657 | 37986 ft | 416 kts | 297° |
| 2026-05-07 03:35 | 46.57658 | 6.34347 | 37977 ft | 417 kts | 297° |
| 2026-05-07 03:35 | 46.60527 | 6.27035 | 37989 ft | 416 kts | 297° |
| 2026-05-07 03:36 | 46.63394 | 6.19711 | 37977 ft | 417 kts | 297° |
| 2026-05-07 03:36 | 46.66256 | 6.12376 | 37987 ft | 417 kts | 297° |
| 2026-05-07 03:37 | 46.69111 | 6.05036 | 38000 ft | 417 kts | 297° |
| 2026-05-07 03:37 | 46.71963 | 5.97689 | 37989 ft | 417 kts | 297° |
| 2026-05-07 03:38 | 46.74808 | 5.90336 | 37992 ft | 416 kts | 297° |
| 2026-05-07 03:38 | 46.77627 | 5.83033 | 37992 ft | 416 kts | 297° |
| 2026-05-07 03:39 | 46.80588 | 5.75793 | 37979 ft | 418 kts | 306° |
| 2026-05-07 03:39 | 46.84842 | 5.69998 | 38000 ft | 423 kts | 324° |
| 2026-05-07 03:40 | 46.89995 | 5.65774 | 37992 ft | 425 kts | 329° |
| 2026-05-07 03:40 | 46.95216 | 5.61701 | 38011 ft | 425 kts | 329° |
| 2026-05-07 03:41 | 47.00410 | 5.57574 | 38019 ft | 425 kts | 328° |
| 2026-05-07 03:41 | 47.05594 | 5.53395 | 38032 ft | 425 kts | 328° |
| 2026-05-07 03:42 | 47.10764 | 5.49207 | 38018 ft | 425 kts | 328° |
| 2026-05-07 03:42 | 47.15946 | 5.45000 | 37993 ft | 426 kts | 328° |
| 2026-05-07 03:43 | 47.21129 | 5.40785 | 37996 ft | 426 kts | 328° |
| 2026-05-07 03:43 | 47.26317 | 5.36556 | 38006 ft | 426 kts | 329° |
| 2026-05-07 03:44 | 47.31507 | 5.32322 | 37993 ft | 426 kts | 329° |
| 2026-05-07 03:44 | 47.36700 | 5.28093 | 37992 ft | 426 kts | 329° |
| 2026-05-07 03:45 | 47.41893 | 5.23857 | 37996 ft | 426 kts | 329° |
| 2026-05-07 03:45 | 47.47082 | 5.19611 | 37988 ft | 426 kts | 329° |
| 2026-05-07 03:46 | 47.52269 | 5.15355 | 37992 ft | 424 kts | 329° |
| 2026-05-07 03:46 | 47.54823 | 5.13258 | 37701 ft | 417 kts | 329° |
| 2026-05-07 03:46 | 47.57355 | 5.11176 | 37054 ft | 417 kts | 329° |
| 2026-05-07 03:46 | 47.59843 | 5.08962 | 36313 ft | 418 kts | 322° |
| 2026-05-07 03:47 | 47.62124 | 5.06293 | 35607 ft | 418 kts | 319° |
| 2026-05-07 03:47 | 47.64327 | 5.03473 | 34928 ft | 419 kts | 317° |
| 2026-05-07 03:47 | 47.66479 | 5.00651 | 34312 ft | 417 kts | 318° |
| 2026-05-07 03:47 | 47.68653 | 4.97810 | 33648 ft | 416 kts | 318° |
| 2026-05-07 03:48 | 47.70866 | 4.94949 | 32797 ft | 417 kts | 319° |
| 2026-05-07 03:48 | 47.73064 | 4.92137 | 31910 ft | 419 kts | 319° |
| 2026-05-07 03:48 | 47.75283 | 4.89318 | 31031 ft | 420 kts | 319° |
| 2026-05-07 03:48 | 47.77511 | 4.86499 | 30174 ft | 421 kts | 320° |
| 2026-05-07 03:49 | 47.79713 | 4.83715 | 29160 ft | 422 kts | 320° |
| 2026-05-07 03:49 | 47.81979 | 4.80849 | 28013 ft | 423 kts | 320° |
| 2026-05-07 03:49 | 47.84232 | 4.77997 | 26826 ft | 426 kts | 319° |
| 2026-05-07 03:49 | 47.86461 | 4.75170 | 25652 ft | 429 kts | 319° |
| 2026-05-07 03:50 | 47.88732 | 4.72286 | 24648 ft | 427 kts | 319° |
| 2026-05-07 03:50 | 47.90978 | 4.69430 | 23838 ft | 421 kts | 319° |
| 2026-05-07 03:50 | 47.93192 | 4.66611 | 22942 ft | 416 kts | 319° |
| 2026-05-07 03:50 | 47.95384 | 4.63818 | 22020 ft | 412 kts | 319° |
| 2026-05-07 03:51 | 47.97542 | 4.61064 | 21203 ft | 405 kts | 319° |
| 2026-05-07 03:51 | 47.99667 | 4.58349 | 20400 ft | 399 kts | 318° |
| 2026-05-07 03:51 | 48.01766 | 4.55665 | 19595 ft | 395 kts | 318° |
| 2026-05-07 03:51 | 48.03841 | 4.53008 | 18812 ft | 391 kts | 318° |
| 2026-05-07 03:52 | 48.05893 | 4.50376 | 18024 ft | 386 kts | 318° |
| 2026-05-07 03:52 | 48.07919 | 4.47775 | 17208 ft | 382 kts | 318° |
| 2026-05-07 03:52 | 48.09921 | 4.45204 | 16422 ft | 377 kts | 318° |
| 2026-05-07 03:52 | 48.11900 | 4.42659 | 15655 ft | 373 kts | 318° |
| 2026-05-07 03:53 | 48.13857 | 4.40138 | 14910 ft | 369 kts | 318° |
| 2026-05-07 03:53 | 48.15783 | 4.37627 | 14171 ft | 366 kts | 318° |
| 2026-05-07 03:53 | 48.17662 | 4.35163 | 14106 ft | 349 kts | 318° |
| 2026-05-07 03:53 | 48.19493 | 4.32756 | 14152 ft | 360 kts | 318° |
| 2026-05-07 03:54 | 48.21380 | 4.30276 | 14180 ft | 356 kts | 318° |
| 2026-05-07 03:54 | 48.23222 | 4.27857 | 14172 ft | 349 kts | 318° |
| 2026-05-07 03:54 | 48.25045 | 4.25462 | 14192 ft | 349 kts | 318° |
| 2026-05-07 03:54 | 48.26839 | 4.23006 | 14192 ft | 350 kts | 314° |
| 2026-05-07 03:55 | 48.28449 | 4.20272 | 14195 ft | 350 kts | 309° |
| 2026-05-07 03:55 | 48.29972 | 4.17434 | 14155 ft | 349 kts | 308° |
| 2026-05-07 03:55 | 48.31487 | 4.14557 | 14044 ft | 352 kts | 308° |
| 2026-05-07 03:55 | 48.33000 | 4.11701 | 14002 ft | 347 kts | 308° |
| 2026-05-07 03:56 | 48.34516 | 4.08872 | 14007 ft | 348 kts | 308° |
| 2026-05-07 03:56 | 48.36043 | 4.06045 | 14008 ft | 348 kts | 309° |
| 2026-05-07 03:56 | 48.37573 | 4.03227 | 14011 ft | 347 kts | 309° |
| 2026-05-07 03:56 | 48.39103 | 4.00418 | 14010 ft | 347 kts | 309° |
| 2026-05-07 03:57 | 48.40629 | 3.97618 | 14010 ft | 346 kts | 309° |
| 2026-05-07 03:57 | 48.42155 | 3.94818 | 14009 ft | 346 kts | 309° |
| 2026-05-07 03:57 | 48.43680 | 3.92017 | 14009 ft | 346 kts | 309° |
| 2026-05-07 03:57 | 48.45453 | 3.89595 | 13981 ft | 347 kts | 330° |
| 2026-05-07 03:58 | 48.47541 | 3.87790 | 13994 ft | 346 kts | 321° |
| 2026-05-07 03:58 | 48.49059 | 3.85011 | 13993 ft | 346 kts | 298° |
| 2026-05-07 03:58 | 48.50126 | 3.81769 | 14011 ft | 346 kts | 298° |
| 2026-05-07 03:58 | 48.51352 | 3.78648 | 14013 ft | 346 kts | 303° |
| 2026-05-07 03:59 | 48.52708 | 3.75639 | 14012 ft | 347 kts | 305° |
| 2026-05-07 03:59 | 48.54108 | 3.72674 | 14010 ft | 346 kts | 305° |
| 2026-05-07 03:59 | 48.55445 | 3.69702 | 13751 ft | 340 kts | 303° |
| 2026-05-07 03:59 | 48.56714 | 3.66716 | 13168 ft | 336 kts | 302° |
| 2026-05-07 04:00 | 48.57973 | 3.63739 | 12428 ft | 336 kts | 302° |
| 2026-05-07 04:00 | 48.59237 | 3.60776 | 11780 ft | 334 kts | 302° |
| 2026-05-07 04:00 | 48.60058 | 3.58857 | 11706 ft | 322 kts | 303° |
| 2026-05-07 04:00 | 48.61399 | 3.56267 | 11578 ft | 306 kts | 318° |
| 2026-05-07 04:01 | 48.63117 | 3.54500 | 11491 ft | 292 kts | 329° |
| 2026-05-07 04:01 | 48.64854 | 3.53005 | 11210 ft | 285 kts | 330° |
| 2026-05-07 04:01 | 48.66580 | 3.51547 | 10802 ft | 284 kts | 330° |
| 2026-05-07 04:01 | 48.68300 | 3.50085 | 10391 ft | 283 kts | 329° |
| 2026-05-07 04:02 | 48.70007 | 3.48621 | 10002 ft | 281 kts | 329° |
| 2026-05-07 04:02 | 48.71697 | 3.47161 | 9669 ft | 277 kts | 329° |
| 2026-05-07 04:02 | 48.73357 | 3.45720 | 9266 ft | 274 kts | 329° |
| 2026-05-07 04:02 | 48.75012 | 3.44277 | 9136 ft | 276 kts | 329° |
| 2026-05-07 04:03 | 48.76686 | 3.42817 | 9110 ft | 277 kts | 329° |
| 2026-05-07 04:03 | 48.78350 | 3.41363 | 9104 ft | 275 kts | 329° |
| 2026-05-07 04:03 | 48.80014 | 3.39925 | 9100 ft | 275 kts | 329° |
| 2026-05-07 04:03 | 48.81682 | 3.38488 | 9107 ft | 276 kts | 329° |
| 2026-05-07 04:04 | 48.83345 | 3.37053 | 9083 ft | 272 kts | 329° |
| 2026-05-07 04:04 | 48.84960 | 3.35655 | 9024 ft | 262 kts | 329° |
| 2026-05-07 04:04 | 48.86505 | 3.34308 | 8940 ft | 250 kts | 329° |
| 2026-05-07 04:04 | 48.87976 | 3.33014 | 8851 ft | 239 kts | 329° |
| 2026-05-07 04:05 | 48.89366 | 3.31784 | 8773 ft | 229 kts | 328° |
| 2026-05-07 04:05 | 48.90730 | 3.30573 | 8693 ft | 220 kts | 329° |
| 2026-05-07 04:05 | 48.92024 | 3.29435 | 8621 ft | 210 kts | 329° |
| 2026-05-07 04:05 | 48.93260 | 3.28341 | 8555 ft | 201 kts | 328° |
| 2026-05-07 04:06 | 48.94309 | 3.27088 | 8453 ft | 191 kts | 303° |
| 2026-05-07 04:06 | 48.94934 | 3.25376 | 8288 ft | 182 kts | 298° |
| 2026-05-07 04:06 | 48.95533 | 3.23688 | 7931 ft | 182 kts | 298° |
| 2026-05-07 04:06 | 48.96137 | 3.22003 | 7568 ft | 181 kts | 298° |
| 2026-05-07 04:07 | 48.96743 | 3.20328 | 7169 ft | 180 kts | 298° |
| 2026-05-07 04:07 | 48.97355 | 3.18652 | 6736 ft | 182 kts | 298° |
| 2026-05-07 04:07 | 48.97972 | 3.16973 | 6329 ft | 181 kts | 298° |
| 2026-05-07 04:07 | 48.98586 | 3.15307 | 5899 ft | 180 kts | 299° |
| 2026-05-07 04:08 | 48.99199 | 3.13650 | 5504 ft | 179 kts | 299° |
| 2026-05-07 04:08 | 48.99807 | 3.12008 | 5103 ft | 177 kts | 300° |
| 2026-05-07 04:08 | 49.00420 | 3.10358 | 5026 ft | 181 kts | 300° |
| 2026-05-07 04:08 | 49.01040 | 3.08692 | 4993 ft | 180 kts | 300° |
| 2026-05-07 04:09 | 49.01650 | 3.07053 | 4981 ft | 178 kts | 299° |
| 2026-05-07 04:09 | 49.02261 | 3.05411 | 4983 ft | 179 kts | 299° |
| 2026-05-07 04:09 | 49.02875 | 3.03761 | 4989 ft | 179 kts | 299° |
| 2026-05-07 04:09 | 49.03489 | 3.02111 | 4976 ft | 179 kts | 299° |
| 2026-05-07 04:10 | 49.04103 | 3.00460 | 4988 ft | 179 kts | 300° |
| 2026-05-07 04:10 | 49.04676 | 2.98787 | 4978 ft | 179 kts | 288° |
| 2026-05-07 04:10 | 49.04857 | 2.96921 | 4986 ft | 178 kts | 273° |
| 2026-05-07 04:10 | 49.04824 | 2.95032 | 4991 ft | 178 kts | 267° |
| 2026-05-07 04:11 | 49.04721 | 2.93162 | 5020 ft | 174 kts | 266° |
| 2026-05-07 04:11 | 49.04615 | 2.91356 | 4832 ft | 168 kts | 266° |
| 2026-05-07 04:11 | 49.04517 | 2.89641 | 4656 ft | 158 kts | 265° |
| 2026-05-07 04:11 | 49.04425 | 2.88013 | 4452 ft | 150 kts | 266° |
| 2026-05-07 04:12 | 49.04337 | 2.86451 | 4265 ft | 146 kts | 265° |
| 2026-05-07 04:12 | 49.04251 | 2.84917 | 4074 ft | 145 kts | 266° |
| 2026-05-07 04:12 | 49.04165 | 2.83385 | 3887 ft | 145 kts | 266° |
| 2026-05-07 04:12 | 49.04079 | 2.81851 | 3689 ft | 145 kts | 266° |
| 2026-05-07 04:13 | 49.03990 | 2.80257 | 3515 ft | 157 kts | 266° |
| 2026-05-07 04:13 | 49.03900 | 2.78632 | 3354 ft | 149 kts | 266° |
| 2026-05-07 04:13 | 49.03817 | 2.77106 | 3170 ft | 140 kts | 266° |
| 2026-05-07 04:13 | 49.03738 | 2.75670 | 2986 ft | 131 kts | 266° |
| 2026-05-07 04:14 | 49.03660 | 2.74263 | 2838 ft | 134 kts | 266° |
| 2026-05-07 04:14 | 49.03583 | 2.72868 | 2645 ft | 130 kts | 266° |
| 2026-05-07 04:14 | 49.03507 | 2.71502 | 2475 ft | 131 kts | 266° |
| 2026-05-07 04:14 | 49.03431 | 2.70131 | 2289 ft | 131 kts | 267° |
| 2026-05-07 04:15 | 49.03357 | 2.68783 | 2142 ft | 122 kts | 267° |
| 2026-05-07 04:15 | 49.03286 | 2.67500 | 1960 ft | 122 kts | 268° |
| 2026-05-07 04:15 | 49.03215 | 2.66204 | 1782 ft | 123 kts | 268° |
| 2026-05-07 04:15 | 49.03144 | 2.64908 | 1610 ft | 123 kts | 267° |
| 2026-05-07 04:16 | 49.03074 | 2.63617 | 1432 ft | 123 kts | 268° |
| 2026-05-07 04:16 | 49.03003 | 2.62327 | 1260 ft | 121 kts | 267° |
| 2026-05-07 04:16 | 49.02934 | 2.61052 | 1082 ft | 120 kts | 267° |
| 2026-05-07 04:16 | 49.02865 | 2.59783 | 915 ft | 120 kts | 267° |
| 2026-05-07 04:17 | 49.02797 | 2.58525 | 743 ft | 119 kts | 267° |
| 2026-05-07 04:17 | 49.02729 | 2.57268 | 588 ft | 119 kts | 267° |
| 2026-05-07 04:17 | 49.02662 | 2.56021 | 435 ft | 118 kts | 267° |
| 2026-05-07 04:17 | 49.02600 | 2.54819 | 356 ft | 105 kts | 268° |
| 2026-05-07 04:18 | 49.02562 | 2.53898 | 355 ft | 71 kts | 264° |
| 2026-05-07 04:18 | 49.02502 | 2.53481 | 361 ft | 23 kts | 246° |
| 2026-05-07 04:18 | 49.02426 | 2.53283 | 358 ft | 20 kts | 230° |
| 2026-05-07 04:18 | 49.02395 | 2.53221 | 356 ft | 2 kts | 236° |
| 2026-05-07 04:19 | 49.02381 | 2.53190 | 356 ft | 6 kts | 236° |
| 2026-05-07 04:19 | 49.02351 | 2.53123 | 355 ft | 9 kts | 235° |
| 2026-05-07 04:19 | 49.02313 | 2.53054 | 353 ft | 9 kts | 225° |
| 2026-05-07 04:19 | 49.02251 | 2.53008 | 360 ft | 12 kts | 195° |
| 2026-05-07 04:20 | 49.02160 | 2.53008 | 361 ft | 14 kts | 174° |
| 2026-05-07 04:20 | 49.02046 | 2.53020 | 353 ft | 18 kts | 177° |
| 2026-05-07 04:20 | 49.01922 | 2.53037 | 353 ft | 17 kts | 175° |
| 2026-05-07 04:21 | 49.01851 | 2.53317 | 354 ft | 16 kts | 85° |
| 2026-05-07 04:21 | 49.01865 | 2.53485 | 356 ft | 16 kts | 82° |
| 2026-05-07 04:21 | 49.01875 | 2.53646 | 361 ft | 15 kts | 85° |
| 2026-05-07 04:21 | 49.01884 | 2.53801 | 353 ft | 14 kts | 84° |
| 2026-05-07 04:22 | 49.01890 | 2.53950 | 353 ft | 14 kts | 86° |
| 2026-05-07 04:22 | 49.01888 | 2.54098 | 360 ft | 15 kts | 118° |
| 2026-05-07 04:22 | 49.01816 | 2.54197 | 360 ft | 15 kts | 92° |
| 2026-05-07 04:22 | 49.01824 | 2.54358 | 353 ft | 15 kts | 85° |
| 2026-05-07 04:23 | 49.01832 | 2.54514 | 358 ft | 14 kts | 85° |
| 2026-05-07 04:23 | 49.01837 | 2.54662 | 353 ft | 14 kts | 89° |
| 2026-05-07 04:23 | 49.01820 | 2.54788 | 360 ft | 13 kts | 145° |
| 2026-05-07 04:23 | 49.01744 | 2.54863 | 353 ft | 13 kts | 168° |
| 2026-05-07 04:24 | 49.01658 | 2.54877 | 353 ft | 12 kts | 174° |
| 2026-05-07 04:24 | 49.01571 | 2.54889 | 353 ft | 12 kts | 174° |
| 2026-05-07 04:24 | 49.01488 | 2.54899 | 358 ft | 12 kts | 174° |
| 2026-05-07 04:24 | 49.01408 | 2.54912 | 353 ft | 12 kts | 174° |
| 2026-05-07 04:25 | 49.01332 | 2.54939 | 360 ft | 11 kts | 154° |
| 2026-05-07 04:25 | 49.01259 | 2.54976 | 353 ft | 11 kts | 166° |
| 2026-05-07 04:25 | 49.01182 | 2.55012 | 356 ft | 13 kts | 161° |
| 2026-05-07 04:25 | 49.01091 | 2.55057 | 357 ft | 15 kts | 162° |
| 2026-05-07 04:26 | 49.00985 | 2.55103 | 357 ft | 17 kts | 165° |
| 2026-05-07 04:26 | 49.00866 | 2.55150 | 353 ft | 18 kts | 166° |
| 2026-05-07 04:26 | 49.00745 | 2.55196 | 360 ft | 18 kts | 166° |
| 2026-05-07 04:26 | 49.00630 | 2.55246 | 355 ft | 17 kts | 157° |
| 2026-05-07 04:27 | 49.00548 | 2.55349 | 357 ft | 13 kts | 113° |
| 2026-05-07 04:27 | 49.00553 | 2.55488 | 355 ft | 13 kts | 83° |
| 2026-05-07 04:27 | 49.00558 | 2.55622 | 353 ft | 13 kts | 85° |
| 2026-05-07 04:27 | 49.02601 | 2.54866 | 352 ft | 0 kts | 267° |